Paganini — V2CL8 — position and weather

sailwx.info

Track history (hours):
 
Tides and Currents Weather Stations Pressure Air Temp Water Temp Dewpoint Dewpoint Depression Visibility Wind Speed Wind Dir Waves Ship Positions

Paganini

Last reported at 2015-Jul-08 01:33 UTC. Time now 2015-Jul-08 02:14 UTC.
Position N 37°28' E 009°33'.

Length 90 m; draft 5.8 m.

Type: Cargo ship. MMSI: 305040000.

Date/timePositionNaut miles runAvg speedWind from/ knotsBaromVisibWave heightAir tempDewpointWater temp
2015-Jul-08 01:33N 37°28' E 009°33'9 9.4
2015-Jul-08 00:33N 37°26' E 009°22'12 9.1
2015-Jul-07 23:12N 37°23' E 009°07'18 8.6
2015-Jul-07 21:06N 37°19' E 008°45'5 8.4
2015-Jul-07 20:33N 37°18' E 008°39'9 8.6
2015-Jul-07 19:33N 37°17' E 008°28'9 8.7
2015-Jul-07 18:33N 37°16' E 008°17'9 8.6
2015-Jul-07 17:32N 37°15' E 008°06'195 8.3
2015-Jul-06 18:08N 37°06' E 004°02'21 8.0
2015-Jul-06 15:32N 37°03' E 003°36'8 8.2
2015-Jul-06 14:32N 37°02' E 003°25'9 8.5
2015-Jul-06 13:30N 37°01' E 003°15'8 8.4
2015-Jul-06 12:33N 36°60' E 003°05'9 8.7
2015-Jul-06 11:33N 36°59' E 002°54'9 8.7
2015-Jul-06 10:33N 36°58' E 002°43'9 8.7
2015-Jul-06 09:34N 36°57' E 002°32'9 8.9
2015-Jul-06 08:33N 36°55' E 002°21'9 8.7
2015-Jul-06 07:33N 36°54' E 002°11'9 8.6
2015-Jul-06 06:33N 36°53' E 001°60'9 8.8
2015-Jul-06 05:33N 36°51' E 001°49'9 8.7
2015-Jul-06 04:33N 36°50' E 001°39'9 8.6
2015-Jul-06 03:33N 36°48' E 001°28'9 8.5
2015-Jul-06 02:33N 36°46' E 001°18'9 8.7
2015-Jul-06 01:33N 36°44' E 001°07'10 8.6
2015-Jul-06 00:26N 36°43' E 000°55'8 8.7
2015-Jul-05 23:33N 36°41' E 000°46'9 8.9
2015-Jul-05 22:34N 36°39' E 000°35'9 8.8
2015-Jul-05 21:34N 36°38' E 000°24'9 8.9
2015-Jul-05 20:33N 36°36' E 000°13'9 8.9
2015-Jul-05 19:34N 36°34' E 000°03'9 8.8
2015-Jul-05 18:33N 36°32' W 000°08'9 8.7
2015-Jul-05 17:34N 36°31' W 000°19'9 8.8
2015-Jul-05 16:33N 36°29' W 000°29'9 8.7
2015-Jul-05 15:33N 36°28' W 000°40'9 8.7
2015-Jul-05 14:33N 36°26' W 000°51'9 8.7
2015-Jul-05 13:33N 36°25' W 001°02'10 8.5
2015-Jul-05 12:25N 36°24' W 001°14'16 8.4
2015-Jul-05 10:29N 36°21' W 001°34'57 7.8
2015-Jul-05 03:13N 36°13' W 002°43'122 8.8
2015-Jul-04 13:24N 35°56' W 005°13'6 7.0
2015-Jul-04 12:33N 35°54' W 005°19'0 0.1
2015-Jul-04 11:33N 35°54' W 005°19'0 0.0
2015-Jul-04 10:33N 35°54' W 005°19'1 0.8
2015-Jul-04 09:33N 35°55' W 005°19'1 0.9
2015-Jul-04 08:32N 35°55' W 005°20'0 0.0
2015-Jul-04 07:33N 35°55' W 005°20'0 0.0
2015-Jul-04 06:33N 35°55' W 005°20'0 0.1
2015-Jul-04 05:33N 35°55' W 005°20'0 0.1
2015-Jul-04 04:33N 35°55' W 005°20'0 0.0
2015-Jul-04 03:33N 35°55' W 005°20'0 0.0
2015-Jul-04 02:33N 35°55' W 005°20'0 0.0
2015-Jul-04 01:33N 35°55' W 005°20'0 0.0
2015-Jul-04 00:33N 35°55' W 005°20'1 0.9
2015-Jul-03 23:33N 35°56' W 005°20'90 8.9
2015-Jul-03 13:31N 36°06' W 007°10'28 8.5
2015-Jul-03 10:17N 36°13' W 007°43'7 8.3
2015-Jul-03 09:26N 36°15' W 007°52'26 8.6
2015-Jul-03 06:23N 36°22' W 008°23'7 8.4
2015-Jul-03 05:33N 36°23' W 008°32'11 8.2
2015-Jul-03 04:12N 36°26' W 008°45'22 8.2
2015-Jul-03 01:28N 36°32' W 009°12'8 8.2
2015-Jul-03 00:31N 36°35' W 009°21'8 8.3
2015-Jul-02 23:33N 36°41' W 009°28'8 8.5
2015-Jul-02 22:33N 36°48' W 009°34'9 9.1
2015-Jul-02 21:33N 36°56' W 009°37'9 9.1
2015-Jul-02 20:33N 37°05' W 009°39'9 9.0
2015-Jul-02 19:33N 37°14' W 009°41'9 9.0
2015-Jul-02 18:33N 37°23' W 009°44'9 8.8
2015-Jul-02 17:33N 37°31' W 009°46'9 9.0
2015-Jul-02 16:33N 37°40' W 009°49'9 8.8
2015-Jul-02 15:32N 37°49' W 009°52'9 8.9
2015-Jul-02 14:29N 37°58' W 009°54'8 8.8
2015-Jul-02 13:32N 38°06' W 009°57'10 8.8
2015-Jul-02 12:25N 38°16' W 009°59'7 8.6
2015-Jul-02 11:33N 38°23' W 010°01'9 8.9
2015-Jul-02 10:33N 38°32' W 010°04'9 8.5
2015-Jul-02 09:33N 38°40' W 010°06'9 8.7
2015-Jul-02 08:33N 38°49' W 010°07'9 8.8
2015-Jul-02 07:33N 38°57' W 010°07'9 9.0
2015-Jul-02 06:33N 39°06' W 010°07'9 8.8
2015-Jul-02 05:33N 39°15' W 010°07'  
2015-Jun-29 18:33N 46°60' W 007°19'17 8.5
2015-Jun-29 16:33N 47°15' W 007°07'12 8.4
2015-Jun-29 15:09N 47°25' W 006°60'14 7.6
2015-Jun-29 13:22N 47°37' W 006°50'13 7.4
2015-Jun-29 11:33N 47°49' W 006°41'7 7.4
2015-Jun-29 10:33N 47°55' W 006°36'16 8.1
2015-Jun-29 08:33N 48°10' W 006°24'28 9.2
2015-Jun-29 05:33N 48°34' W 006°05'9 9.0
2015-Jun-29 04:33N 48°42' W 005°58'9 8.5
2015-Jun-29 03:33N 48°49' W 005°52'8 7.6
2015-Jun-29 02:33N 48°55' W 005°45'16 6.8
2015-Jun-29 00:15N 49°04' W 005°25'22 7.6
2015-Jun-28 21:18N 49°15' W 004°55'105 8.1
2015-Jun-28 08:18N 50°04' W 002°32'8 8.2
2015-Jun-28 07:17N 50°07' W 002°19'6 7.6
2015-Jun-28 06:29N 50°08' W 002°10'6 6.8
2015-Jun-28 05:32N 50°10' W 002°01'6 6.2
2015-Jun-28 04:32N 50°12' W 001°51'8 6.3
2015-Jun-28 03:21N 50°14' W 001°40'6 7.1
2015-Jun-28 02:30N 50°15' W 001°31'7 8.0
2015-Jun-28 01:34N 50°18' W 001°20'  
Track history (hours):
 
Tides and Currents Weather Stations Pressure Air Temp Water Temp Dewpoint Dewpoint Depression Visibility Wind Speed Wind Dir Waves Ship Positions

Paganini

Last reported at 2015-Jul-08 01:33 UTC. Time now 2015-Jul-08 02:14 UTC.
Position N 37°28' E 009°33'.

Length 90 m; draft 5.8 m.

Type: Cargo ship. MMSI: 305040000.

Date/timePositionNaut miles runAvg speedWind from/ knotsBaromVisibWave heightAir tempDewpointWater temp
2015-Jul-08 01:33N 37°28' E 009°33'9 9.4
2015-Jul-08 00:33N 37°26' E 009°22'12 9.1
2015-Jul-07 23:12N 37°23' E 009°07'18 8.6
2015-Jul-07 21:06N 37°19' E 008°45'5 8.4
2015-Jul-07 20:33N 37°18' E 008°39'9 8.6
2015-Jul-07 19:33N 37°17' E 008°28'9 8.7
2015-Jul-07 18:33N 37°16' E 008°17'9 8.6
2015-Jul-07 17:32N 37°15' E 008°06'195 8.3
2015-Jul-06 18:08N 37°06' E 004°02'21 8.0
2015-Jul-06 15:32N 37°03' E 003°36'8 8.2
2015-Jul-06 14:32N 37°02' E 003°25'9 8.5
2015-Jul-06 13:30N 37°01' E 003°15'8 8.4
2015-Jul-06 12:33N 36°60' E 003°05'9 8.7
2015-Jul-06 11:33N 36°59' E 002°54'9 8.7
2015-Jul-06 10:33N 36°58' E 002°43'9 8.7
2015-Jul-06 09:34N 36°57' E 002°32'9 8.9
2015-Jul-06 08:33N 36°55' E 002°21'9 8.7
2015-Jul-06 07:33N 36°54' E 002°11'9 8.6
2015-Jul-06 06:33N 36°53' E 001°60'9 8.8
2015-Jul-06 05:33N 36°51' E 001°49'9 8.7
2015-Jul-06 04:33N 36°50' E 001°39'9 8.6
2015-Jul-06 03:33N 36°48' E 001°28'9 8.5
2015-Jul-06 02:33N 36°46' E 001°18'9 8.7
2015-Jul-06 01:33N 36°44' E 001°07'10 8.6
2015-Jul-06 00:26N 36°43' E 000°55'8 8.7
2015-Jul-05 23:33N 36°41' E 000°46'9 8.9
2015-Jul-05 22:34N 36°39' E 000°35'9 8.8
2015-Jul-05 21:34N 36°38' E 000°24'9 8.9
2015-Jul-05 20:33N 36°36' E 000°13'9 8.9
2015-Jul-05 19:34N 36°34' E 000°03'9 8.8
2015-Jul-05 18:33N 36°32' W 000°08'9 8.7
2015-Jul-05 17:34N 36°31' W 000°19'9 8.8
2015-Jul-05 16:33N 36°29' W 000°29'9 8.7
2015-Jul-05 15:33N 36°28' W 000°40'9 8.7
2015-Jul-05 14:33N 36°26' W 000°51'9 8.7
2015-Jul-05 13:33N 36°25' W 001°02'10 8.5
2015-Jul-05 12:25N 36°24' W 001°14'16 8.4
2015-Jul-05 10:29N 36°21' W 001°34'57 7.8
2015-Jul-05 03:13N 36°13' W 002°43'122 8.8
2015-Jul-04 13:24N 35°56' W 005°13'6 7.0
2015-Jul-04 12:33N 35°54' W 005°19'0 0.1
2015-Jul-04 11:33N 35°54' W 005°19'0 0.0
2015-Jul-04 10:33N 35°54' W 005°19'1 0.8
2015-Jul-04 09:33N 35°55' W 005°19'1 0.9
2015-Jul-04 08:32N 35°55' W 005°20'0 0.0
2015-Jul-04 07:33N 35°55' W 005°20'0 0.0
2015-Jul-04 06:33N 35°55' W 005°20'0 0.1
2015-Jul-04 05:33N 35°55' W 005°20'0 0.1
2015-Jul-04 04:33N 35°55' W 005°20'0 0.0
2015-Jul-04 03:33N 35°55' W 005°20'0 0.0
2015-Jul-04 02:33N 35°55' W 005°20'0 0.0
2015-Jul-04 01:33N 35°55' W 005°20'0 0.0
2015-Jul-04 00:33N 35°55' W 005°20'1 0.9
2015-Jul-03 23:33N 35°56' W 005°20'90 8.9
2015-Jul-03 13:31N 36°06' W 007°10'28 8.5
2015-Jul-03 10:17N 36°13' W 007°43'7 8.3
2015-Jul-03 09:26N 36°15' W 007°52'26 8.6
2015-Jul-03 06:23N 36°22' W 008°23'7 8.4
2015-Jul-03 05:33N 36°23' W 008°32'11 8.2
2015-Jul-03 04:12N 36°26' W 008°45'22 8.2
2015-Jul-03 01:28N 36°32' W 009°12'8 8.2
2015-Jul-03 00:31N 36°35' W 009°21'8 8.3
2015-Jul-02 23:33N 36°41' W 009°28'8 8.5
2015-Jul-02 22:33N 36°48' W 009°34'9 9.1
2015-Jul-02 21:33N 36°56' W 009°37'9 9.1
2015-Jul-02 20:33N 37°05' W 009°39'9 9.0
2015-Jul-02 19:33N 37°14' W 009°41'9 9.0
2015-Jul-02 18:33N 37°23' W 009°44'9 8.8
2015-Jul-02 17:33N 37°31' W 009°46'9 9.0
2015-Jul-02 16:33N 37°40' W 009°49'9 8.8
2015-Jul-02 15:32N 37°49' W 009°52'9 8.9
2015-Jul-02 14:29N 37°58' W 009°54'8 8.8
2015-Jul-02 13:32N 38°06' W 009°57'10 8.8
2015-Jul-02 12:25N 38°16' W 009°59'7 8.6
2015-Jul-02 11:33N 38°23' W 010°01'9 8.9
2015-Jul-02 10:33N 38°32' W 010°04'9 8.5
2015-Jul-02 09:33N 38°40' W 010°06'9 8.7
2015-Jul-02 08:33N 38°49' W 010°07'9 8.8
2015-Jul-02 07:33N 38°57' W 010°07'9 9.0
2015-Jul-02 06:33N 39°06' W 010°07'9 8.8
2015-Jul-02 05:33N 39°15' W 010°07'  
2015-Jun-29 18:33N 46°60' W 007°19'17 8.5
2015-Jun-29 16:33N 47°15' W 007°07'12 8.4
2015-Jun-29 15:09N 47°25' W 006°60'14 7.6
2015-Jun-29 13:22N 47°37' W 006°50'13 7.4
2015-Jun-29 11:33N 47°49' W 006°41'7 7.4
2015-Jun-29 10:33N 47°55' W 006°36'16 8.1
2015-Jun-29 08:33N 48°10' W 006°24'28 9.2
2015-Jun-29 05:33N 48°34' W 006°05'9 9.0
2015-Jun-29 04:33N 48°42' W 005°58'9 8.5
2015-Jun-29 03:33N 48°49' W 005°52'8 7.6
2015-Jun-29 02:33N 48°55' W 005°45'16 6.8
2015-Jun-29 00:15N 49°04' W 005°25'22 7.6
2015-Jun-28 21:18N 49°15' W 004°55'105 8.1
2015-Jun-28 08:18N 50°04' W 002°32'8 8.2
2015-Jun-28 07:17N 50°07' W 002°19'6 7.6
2015-Jun-28 06:29N 50°08' W 002°10'6 6.8
2015-Jun-28 05:32N 50°10' W 002°01'6 6.2
2015-Jun-28 04:32N 50°12' W 001°51'8 6.3
2015-Jun-28 03:21N 50°14' W 001°40'6 7.1
2015-Jun-28 02:30N 50°15' W 001°31'7 8.0
2015-Jun-28 01:34N 50°18' W 001°20'  

Dump ship's entire track history